Time;durP1;ratioP1;P1;durP2;ratioP2;P2;SDS_P1;SDS_P2;PMS_P1;PMS_P2;Temp;Humidity;BMP_temperature;BMP_pressure;BME280_temperature;BME280_humidity;BME280_pressure;Samples;Min_cycle;Max_cycle;Signal;HPM_P1;HPM_P2
2023/06/25 00:00:48;;;;;;;4.13;2.30;;;23.10;83.00;;;;;;5044209;28;20225;-63
2023/06/25 00:03:17;;;;;;;3.03;2.07;;;23.00;82.90;;;;;;5048875;28;20230;-63
2023/06/25 00:05:44;;;;;;;2.47;1.93;;;23.00;83.00;;;;;;5046780;28;20213;-63
2023/06/25 00:08:11;;;;;;;4.43;2.20;;;22.90;83.00;;;;;;5039613;28;20196;-63
2023/06/25 00:10:39;;;;;;;6.23;2.20;;;22.90;83.30;;;;;;5046482;28;20237;-63
2023/06/25 00:13:06;;;;;;;2.73;2.50;;;22.80;83.50;;;;;;5048937;28;20195;-63
2023/06/25 00:15:33;;;;;;;2.40;2.20;;;22.80;83.90;;;;;;5045519;28;20199;-62
2023/06/25 00:18:00;;;;;;;2.63;2.07;;;22.70;84.20;;;;;;5042683;28;20199;-62
2023/06/25 00:20:28;;;;;;;2.77;2.23;;;22.70;84.50;;;;;;5043562;28;20277;-63
2023/06/25 00:22:55;;;;;;;4.30;2.70;;;22.70;84.60;;;;;;5043036;28;20203;-63
2023/06/25 00:25:34;;;;;;;6.90;2.40;;;22.70;84.90;;;;;;5049051;28;20238;-63
2023/06/25 00:28:02;;;;;;;2.90;2.60;;;22.60;85.00;;;;;;5048432;28;20202;-63
2023/06/25 00:30:29;;;;;;;3.00;2.80;;;22.70;85.30;;;;;;5035443;28;20295;-63
2023/06/25 00:32:56;;;;;;;5.53;2.90;;;22.70;85.50;;;;;;5049600;28;20257;-63
2023/06/25 00:35:27;;;;;;;7.13;2.37;;;22.70;85.50;;;;;;5041746;28;20207;-64
2023/06/25 00:38:00;;;;;;;5.67;2.53;;;22.70;85.30;;;;;;5047026;28;20261;-63
2023/06/25 00:40:28;;;;;;;3.67;2.47;;;22.70;85.30;;;;;;5043551;28;20210;-63
2023/06/25 00:42:58;;;;;;;10.43;2.70;;;22.60;85.50;;;;;;5037899;28;20199;-63
2023/06/25 00:45:26;;;;;;;5.37;2.67;;;22.60;85.60;;;;;;5042615;28;20552;-63
2023/06/25 00:47:54;;;;;;;5.50;2.73;;;22.60;85.60;;;;;;5033581;28;20204;-63
2023/06/25 00:50:25;;;;;;;4.13;2.23;;;22.60;85.70;;;;;;5043769;28;20257;-62
2023/06/25 00:52:52;;;;;;;5.20;2.80;;;22.60;85.80;;;;;;5055706;28;20203;-63
2023/06/25 00:55:20;;;;;;;2.27;2.00;;;22.60;85.90;;;;;;5039683;28;20199;-63
2023/06/25 00:57:47;;;;;;;5.03;2.70;;;22.60;86.00;;;;;;5041184;28;20207;-63
2023/06/25 01:00:16;;;;;;;4.27;2.80;;;22.60;85.90;;;;;;5060468;28;20211;-63
2023/06/25 01:02:52;;;;;;;2.57;2.37;;;22.60;85.90;;;;;;5034300;28;20302;-62
2023/06/25 01:05:28;;;;;;;4.77;2.63;;;22.60;86.10;;;;;;5033838;28;20240;-63
2023/06/25 01:07:58;;;;;;;5.27;2.87;;;22.50;86.30;;;;;;5043659;28;20203;-63
2023/06/25 01:10:25;;;;;;;3.30;3.00;;;22.50;87.20;;;;;;5045731;28;20646;-63
2023/06/25 01:12:54;;;;;;;3.50;2.97;;;22.40;86.90;;;;;;5032561;28;20603;-63
2023/06/25 01:15:21;;;;;;;5.30;2.90;;;22.40;87.20;;;;;;5043857;28;20523;-62
2023/06/25 01:17:48;;;;;;;5.90;2.40;;;22.40;86.90;;;;;;5040447;28;20286;-62
2023/06/25 01:20:16;;;;;;;6.53;2.40;;;22.40;86.80;;;;;;5039802;28;20214;-63
2023/06/25 01:22:43;;;;;;;3.67;3.10;;;22.30;86.70;;;;;;5032003;28;20302;-63
2023/06/25 01:25:10;;;;;;;3.70;3.10;;;22.30;86.90;;;;;;5033632;28;20226;-63
2023/06/25 01:27:37;;;;;;;5.07;3.00;;;22.30;87.00;;;;;;5025782;28;20547;-65
2023/06/25 01:30:09;;;;;;;4.00;2.90;;;22.30;87.00;;;;;;5038783;28;20325;-63
2023/06/25 01:32:41;;;;;;;2.83;2.37;;;22.30;86.90;;;;;;5043851;28;20211;-63
2023/06/25 01:35:09;;;;;;;4.43;2.93;;;22.30;87.00;;;;;;5041672;28;20221;-63
2023/06/25 01:37:39;;;;;;;2.87;2.43;;;22.30;87.00;;;;;;5047173;28;20224;-63
2023/06/25 01:40:07;;;;;;;4.33;2.87;;;22.20;87.10;;;;;;5044516;28;20305;-63
2023/06/25 01:42:35;;;;;;;7.40;2.67;;;22.30;87.30;;;;;;5042317;28;20321;-63
2023/06/25 01:45:03;;;;;;;3.27;2.37;;;22.30;87.30;;;;;;5046911;28;20677;-62
2023/06/25 01:47:30;;;;;;;2.87;2.20;;;22.30;87.40;;;;;;5044658;28;20569;-63
2023/06/25 01:50:00;;;;;;;3.03;2.40;;;22.30;87.40;;;;;;5043292;28;20202;-63
2023/06/25 01:52:27;;;;;;;8.10;2.43;;;22.30;87.50;;;;;;5054487;28;20204;-63
2023/06/25 01:54:54;;;;;;;2.37;2.17;;;22.30;87.60;;;;;;5039140;28;20199;-66
2023/06/25 01:57:21;;;;;;;2.30;2.10;;;22.30;87.70;;;;;;5034905;28;20195;-63
2023/06/25 01:59:48;;;;;;;2.77;2.47;;;22.30;87.80;;;;;;5022301;28;20208;-63
2023/06/25 02:02:16;;;;;;;3.53;2.33;;;22.20;87.70;;;;;;5042517;28;20203;-63
2023/06/25 02:04:43;;;;;;;6.77;2.57;;;22.20;87.80;;;;;;5044148;28;20206;-63
2023/06/25 02:07:10;;;;;;;1.97;1.80;;;22.20;87.80;;;;;;5026083;28;20225;-63
2023/06/25 02:09:38;;;;;;;3.63;2.57;;;22.20;87.90;;;;;;5041990;28;20191;-62
2023/06/25 02:12:08;;;;;;;3.03;2.20;;;22.10;87.90;;;;;;5040031;28;20203;-63
2023/06/25 02:14:36;;;;;;;4.23;2.57;;;22.10;88.10;;;;;;5049200;28;20191;-62
2023/06/25 02:17:03;;;;;;;3.50;2.20;;;22.10;88.90;;;;;;5030930;28;20297;-64
2023/06/25 02:19:31;;;;;;;3.87;3.20;;;22.10;88.20;;;;;;5034419;28;20202;-63
2023/06/25 02:21:58;;;;;;;4.13;2.47;;;22.00;88.10;;;;;;5025708;28;20486;-62
2023/06/25 02:24:25;;;;;;;5.07;3.00;;;22.00;88.20;;;;;;5042408;28;20257;-62
2023/06/25 02:26:52;;;;;;;5.83;2.27;;;21.90;88.40;;;;;;5031967;28;20207;-62
2023/06/25 02:29:19;;;;;;;4.37;2.40;;;21.90;88.40;;;;;;5027475;28;20275;-63
2023/06/25 02:31:46;;;;;;;3.03;2.63;;;21.80;88.50;;;;;;5029131;28;20205;-63
2023/06/25 02:34:16;;;;;;;4.20;2.50;;;21.80;88.60;;;;;;5036816;28;20661;-64
2023/06/25 02:36:43;;;;;;;5.13;2.40;;;21.70;88.80;;;;;;5041669;28;20746;-63
2023/06/25 02:39:10;;;;;;;5.80;2.47;;;21.70;88.90;;;;;;5060339;28;20207;-63
2023/06/25 02:41:39;;;;;;;3.77;2.17;;;21.70;88.90;;;;;;5042511;28;20678;-62
2023/06/25 02:44:06;;;;;;;2.40;2.00;;;21.60;88.80;;;;;;5029507;28;20570;-65
2023/06/25 02:46:35;;;;;;;3.67;2.47;;;21.60;88.70;;;;;;5041390;28;20245;-63
2023/06/25 02:49:03;;;;;;;3.93;2.97;;;21.60;88.90;;;;;;5032466;28;20286;-63
2023/06/25 02:51:30;;;;;;;9.47;3.50;;;21.60;89.20;;;;;;5026378;28;20195;-63
2023/06/25 02:53:57;;;;;;;5.63;3.67;;;21.50;89.50;;;;;;5022853;28;20206;-62
2023/06/25 02:56:25;;;;;;;4.90;3.13;;;21.50;89.60;;;;;;5030324;28;20191;-62
2023/06/25 02:58:52;;;;;;;4.53;3.20;;;21.50;90.00;;;;;;5027462;28;20221;-63
2023/06/25 03:01:19;;;;;;;7.70;3.90;;;21.50;90.00;;;;;;5023832;28;20898;-62
2023/06/25 03:03:46;;;;;;;3.67;3.03;;;21.50;90.10;;;;;;5030168;28;20202;-63
2023/06/25 03:06:13;;;;;;;5.20;3.13;;;21.60;90.30;;;;;;5040807;28;20241;-64
2023/06/25 03:08:40;;;;;;;5.57;3.43;;;21.50;90.20;;;;;;5030855;28;20253;-63
2023/06/25 03:11:08;;;;;;;4.97;2.60;;;21.50;90.10;;;;;;5029932;28;20203;-63
2023/06/25 03:13:38;;;;;;;5.27;2.70;;;21.50;90.10;;;;;;5042005;28;20606;-63
2023/06/25 03:16:05;;;;;;;4.97;3.53;;;21.40;90.00;;;;;;5043203;28;20264;-62
2023/06/25 03:18:33;;;;;;;3.20;2.80;;;21.40;90.10;;;;;;5034076;28;20199;-62
2023/06/25 03:21:03;;;;;;;7.27;3.10;;;21.40;90.20;;;;;;5027585;28;20242;-64
2023/06/25 03:23:31;;;;;;;4.77;3.43;;;21.40;90.30;;;;;;5034712;28;20207;-63
2023/06/25 03:26:00;;;;;;;4.30;3.00;;;21.40;90.40;;;;;;5028204;28;20232;-63
2023/06/25 03:28:28;;;;;;;6.03;2.97;;;21.40;90.50;;;;;;5031437;28;20218;-62
2023/06/25 03:30:55;;;;;;;4.33;2.90;;;21.40;90.50;;;;;;5031470;28;20208;-63
2023/06/25 03:33:23;;;;;;;4.13;2.90;;;21.40;90.60;;;;;;5020963;28;20542;-63
2023/06/25 03:35:50;;;;;;;6.37;3.00;;;21.40;90.70;;;;;;5031471;28;20317;-63
2023/06/25 03:38:17;;;;;;;4.00;3.00;;;21.40;90.70;;;;;;5028540;28;20290;-63
2023/06/25 03:40:44;;;;;;;3.23;2.97;;;21.40;90.80;;;;;;5024965;28;20768;-63
2023/06/25 03:43:11;;;;;;;6.63;3.13;;;21.40;90.80;;;;;;5057321;28;20226;-63
2023/06/25 03:45:44;;;;;;;3.93;2.83;;;21.40;90.70;;;;;;5026609;28;20228;-63
2023/06/25 03:48:12;;;;;;;4.13;3.50;;;21.40;90.70;;;;;;5057985;28;20199;-64
2023/06/25 03:50:39;;;;;;;4.70;3.37;;;21.40;90.70;;;;;;5032502;28;20216;-63
2023/06/25 03:53:06;;;;;;;5.53;3.20;;;21.40;90.70;;;;;;5033113;28;20661;-63
2023/06/25 03:55:35;;;;;;;4.23;3.10;;;21.40;90.60;;;;;;5018103;28;20642;-62
2023/06/25 03:58:02;;;;;;;5.60;3.30;;;21.40;90.50;;;;;;5024265;28;20573;-63
2023/06/25 04:00:29;;;;;;;6.13;3.67;;;21.40;90.40;;;;;;5028161;28;20231;-62
2023/06/25 04:02:58;;;;;;;5.07;3.23;;;21.40;90.40;;;;;;5022202;28;20199;-63
2023/06/25 04:05:25;;;;;;;5.37;3.63;;;21.40;90.50;;;;;;5028978;28;20310;-63
2023/06/25 04:07:53;;;;;;;7.37;4.07;;;21.40;90.40;;;;;;5021113;28;20266;-63
2023/06/25 04:10:20;;;;;;;5.23;3.63;;;21.30;90.00;;;;;;5013324;28;20196;-63
2023/06/25 04:12:47;;;;;;;5.13;4.00;;;21.30;90.00;;;;;;5030730;28;20207;-63
2023/06/25 04:15:16;;;;;;;6.90;4.13;;;21.30;90.10;;;;;;5030378;28;20195;-62
2023/06/25 04:17:43;;;;;;;4.27;3.23;;;21.30;90.00;;;;;;5053446;28;20211;-63
2023/06/25 04:20:13;;;;;;;7.53;4.10;;;21.30;89.50;;;;;;5029151;28;20600;-63
2023/06/25 04:22:40;;;;;;;9.30;4.30;;;21.30;89.60;;;;;;5023725;28;20221;-63
2023/06/25 04:25:08;;;;;;;7.37;3.80;;;21.20;89.90;;;;;;5055903;28;20318;-63
2023/06/25 04:27:35;;;;;;;5.43;4.10;;;21.20;90.00;;;;;;5047941;28;20231;-63
2023/06/25 04:30:02;;;;;;;5.20;4.33;;;21.20;90.20;;;;;;5031986;28;20230;-62
2023/06/25 04:32:32;;;;;;;6.10;3.97;;;21.20;90.20;;;;;;5034187;28;20226;-62
2023/06/25 04:35:00;;;;;;;4.07;3.50;;;21.20;90.20;;;;;;5044582;28;20203;-63
2023/06/25 04:37:28;;;;;;;6.37;4.27;;;21.30;90.70;;;;;;5028026;28;20697;-62
2023/06/25 04:39:55;;;;;;;6.73;3.40;;;21.40;90.40;;;;;;5026306;28;20211;-63
2023/06/25 04:42:22;;;;;;;9.13;4.63;;;21.40;90.50;;;;;;5023478;28;20214;-62
2023/06/25 04:44:52;;;;;;;4.23;3.80;;;21.40;90.50;;;;;;5026772;28;20223;-63
2023/06/25 04:47:19;;;;;;;4.57;3.60;;;21.40;90.50;;;;;;5027721;28;20196;-64
2023/06/25 04:49:47;;;;;;;6.67;4.20;;;21.50;90.50;;;;;;5024343;28;20222;-63
2023/06/25 04:52:18;;;;;;;4.60;4.07;;;21.50;90.40;;;;;;5056507;28;20215;-63
2023/06/25 04:54:45;;;;;;;4.40;3.77;;;21.60;90.40;;;;;;5027275;28;20263;-62
2023/06/25 04:57:13;;;;;;;5.37;4.23;;;21.70;90.30;;;;;;5024543;28;20199;-63
2023/06/25 04:59:40;;;;;;;4.90;3.93;;;21.70;90.20;;;;;;5023145;28;20211;-62
2023/06/25 05:02:07;;;;;;;8.90;5.10;;;21.80;90.20;;;;;;5026366;28;20577;-63
2023/06/25 05:04:34;;;;;;;4.33;3.93;;;21.90;90.20;;;;;;5030676;28;20221;-63
2023/06/25 05:07:01;;;;;;;8.70;3.70;;;21.90;90.00;;;;;;5019986;28;20293;-67
2023/06/25 05:09:31;;;;;;;6.67;4.07;;;22.00;89.90;;;;;;5029006;28;20269;-63
2023/06/25 05:11:58;;;;;;;4.50;4.07;;;22.10;90.00;;;;;;5026687;28;20223;-63
2023/06/25 05:14:25;;;;;;;7.53;4.17;;;22.20;90.00;;;;;;5026748;28;20206;-63
2023/06/25 05:16:52;;;;;;;7.53;4.40;;;22.30;89.90;;;;;;5021636;28;20203;-63
2023/06/25 05:19:19;;;;;;;5.07;4.20;;;22.40;89.80;;;;;;5024071;28;20197;-63
2023/06/25 05:21:49;;;;;;;9.13;4.10;;;22.50;89.60;;;;;;5057457;28;20222;-64
2023/06/25 05:24:16;;;;;;;6.73;4.17;;;22.60;89.50;;;;;;5026449;28;20357;-63
2023/06/25 05:26:43;;;;;;;10.60;4.50;;;22.80;89.40;;;;;;5046584;28;20237;-62
2023/06/25 05:29:10;;;;;;;7.57;4.13;;;22.90;88.80;;;;;;5043078;28;20198;-63
2023/06/25 05:31:39;;;;;;;5.70;4.67;;;23.00;88.50;;;;;;5045160;28;20538;-63
2023/06/25 05:34:07;;;;;;;5.77;4.40;;;23.20;88.20;;;;;;5042726;28;20199;-63
2023/06/25 05:36:34;;;;;;;6.00;4.57;;;23.30;87.90;;;;;;5042931;28;20588;-64
2023/06/25 05:39:01;;;;;;;4.57;3.80;;;23.40;87.80;;;;;;5045069;28;20206;-62
2023/06/25 05:41:28;;;;;;;5.30;4.50;;;23.50;87.60;;;;;;5040944;28;20756;-63
2023/06/25 05:43:55;;;;;;;4.33;3.83;;;23.80;87.20;;;;;;5033162;28;20337;-63
2023/06/25 05:46:22;;;;;;;6.20;4.70;;;23.90;86.60;;;;;;5033633;28;20224;-63
2023/06/25 05:48:49;;;;;;;6.47;3.73;;;24.20;86.10;;;;;;5045896;28;20233;-63
2023/06/25 05:51:19;;;;;;;6.13;4.27;;;24.40;85.40;;;;;;5040782;28;20278;-63
2023/06/25 05:53:46;;;;;;;10.93;5.10;;;24.50;84.80;;;;;;5040162;28;20195;-63
2023/06/25 05:56:13;;;;;;;6.13;3.90;;;24.70;84.30;;;;;;5042369;28;20217;-62
2023/06/25 05:58:43;;;;;;;5.43;3.57;;;24.80;83.70;;;;;;5039893;28;20240;-63
2023/06/25 06:01:10;;;;;;;3.60;3.30;;;25.00;83.10;;;;;;5044971;28;20202;-63
2023/06/25 06:03:38;;;;;;;5.37;3.47;;;25.10;82.20;;;;;;5046239;28;20209;-64
2023/06/25 06:06:05;;;;;;;5.50;3.57;;;25.20;81.60;;;;;;5044709;28;20209;-63
2023/06/25 06:08:32;;;;;;;3.57;3.27;;;25.30;81.00;;;;;;5042365;28;20206;-64
2023/06/25 06:11:00;;;;;;;6.80;3.37;;;25.40;80.90;;;;;;5041332;28;20605;-62
2023/06/25 06:13:27;;;;;;;4.83;3.60;;;25.50;80.50;;;;;;5047369;28;20632;-63
2023/06/25 06:15:54;;;;;;;7.33;3.30;;;25.70;80.20;;;;;;5045350;28;20203;-63
2023/06/25 06:18:21;;;;;;;5.30;3.40;;;25.70;79.80;;;;;;5041819;28;20272;-63
2023/06/25 06:20:49;;;;;;;4.47;3.43;;;25.90;79.50;;;;;;5039238;28;20221;-63
2023/06/25 06:23:16;;;;;;;3.77;3.37;;;26.00;79.10;;;;;;5044167;28;20645;-63
2023/06/25 06:25:45;;;;;;;4.80;2.83;;;26.10;78.70;;;;;;5036860;28;20271;-63
2023/06/25 06:28:12;;;;;;;3.67;2.37;;;26.20;77.10;;;;;;5042617;28;20263;-63
2023/06/25 06:30:39;;;;;;;8.00;2.67;;;26.30;76.60;;;;;;5043382;28;20206;-63
2023/06/25 06:33:06;;;;;;;3.63;2.17;;;26.30;75.70;;;;;;5038714;28;20284;-64
2023/06/25 06:35:34;;;;;;;2.33;2.17;;;26.40;76.20;;;;;;5041578;28;20506;-63
2023/06/25 06:38:01;;;;;;;4.37;2.20;;;26.50;76.70;;;;;;5043919;28;20224;-63
2023/06/25 06:40:28;;;;;;;2.43;2.00;;;26.60;76.00;;;;;;5045367;28;20525;-63
2023/06/25 06:42:55;;;;;;;5.23;2.10;;;26.80;75.70;;;;;;5037636;28;20641;-63
2023/06/25 06:45:22;;;;;;;2.00;1.73;;;26.90;74.90;;;;;;5046853;28;20229;-63
2023/06/25 06:47:49;;;;;;;3.43;2.00;;;27.10;75.10;;;;;;5043104;28;20202;-63
2023/06/25 06:50:16;;;;;;;3.33;2.03;;;27.30;74.50;;;;;;5044444;28;20203;-63
2023/06/25 06:52:44;;;;;;;2.30;2.10;;;27.50;72.80;;;;;;5043046;28;20218;-63
2023/06/25 06:55:12;;;;;;;3.20;2.00;;;27.60;72.00;;;;;;5040329;28;20261;-63
2023/06/25 06:57:39;;;;;;;1.90;1.40;;;27.70;71.50;;;;;;5040388;28;20203;-63
2023/06/25 07:00:06;;;;;;;1.97;1.80;;;27.90;71.10;;;;;;5044133;28;20204;-63
2023/06/25 07:02:33;;;;;;;1.63;1.53;;;28.10;70.10;;;;;;5046362;28;20206;-63
2023/06/25 07:05:02;;;;;;;2.33;1.93;;;28.20;69.10;;;;;;5043719;28;20199;-63
2023/06/25 07:07:29;;;;;;;2.60;1.60;;;28.30;69.00;;;;;;5044743;28;20203;-63
2023/06/25 07:09:56;;;;;;;1.77;1.67;;;28.50;69.00;;;;;;5030137;28;20210;-63
2023/06/25 07:12:23;;;;;;;4.60;2.37;;;28.60;68.60;;;;;;5045914;28;20218;-63
2023/06/25 07:14:50;;;;;;;4.23;1.87;;;28.80;68.40;;;;;;5049712;28;20206;-63
2023/06/25 07:17:17;;;;;;;4.60;2.10;;;29.00;68.00;;;;;;5049112;28;20283;-63
2023/06/25 07:19:44;;;;;;;2.57;2.00;;;29.10;67.80;;;;;;5044534;28;20206;-63
2023/06/25 07:22:13;;;;;;;4.20;1.97;;;29.30;67.60;;;;;;5050178;28;20199;-63
2023/06/25 07:24:40;;;;;;;3.87;2.80;;;29.40;66.90;;;;;;5046137;28;20321;-63
2023/06/25 07:27:07;;;;;;;3.00;2.27;;;29.60;65.30;;;;;;5043205;28;20234;-63
2023/06/25 07:29:35;;;;;;;4.60;1.90;;;29.70;64.90;;;;;;5058030;28;20672;-63
2023/06/25 07:32:02;;;;;;;2.60;2.23;;;29.80;64.80;;;;;;5040109;28;20203;-64
2023/06/25 07:34:35;;;;;;;4.90;2.47;;;29.90;63.90;;;;;;5035920;28;20221;-63
2023/06/25 07:37:03;;;;;;;3.67;2.53;;;30.00;62.50;;;;;;5046007;28;20214;-63
2023/06/25 07:39:30;;;;;;;3.47;2.20;;;30.10;61.90;;;;;;5043961;28;20203;-63
2023/06/25 07:41:57;;;;;;;2.83;2.33;;;30.10;61.50;;;;;;5044489;28;20207;-63
2023/06/25 07:44:25;;;;;;;3.83;2.47;;;30.10;60.60;;;;;;5046341;28;20218;-63
2023/06/25 07:47:12;;;;;;;4.43;2.93;;;30.10;58.20;;;;;;5043151;28;20223;-63
2023/06/25 07:49:39;;;;;;;3.20;2.87;;;30.00;57.80;;;;;;5035708;28;20225;-63
2023/06/25 07:52:06;;;;;;;2.63;2.33;;;30.00;56.40;;;;;;5047474;28;20657;-63
2023/06/25 07:54:33;;;;;;;3.60;2.97;;;29.90;56.70;;;;;;5024170;28;20217;-63
2023/06/25 07:57:00;;;;;;;3.63;3.20;;;29.80;56.80;;;;;;5045703;28;20218;-63
2023/06/25 07:59:27;;;;;;;5.50;2.77;;;29.70;56.80;;;;;;5045716;28;20548;-63
2023/06/25 08:02:14;;;;;;;6.40;3.37;;;29.80;57.30;;;;;;5042995;28;20214;-63
2023/06/25 08:04:42;;;;;;;3.63;3.10;;;29.90;54.60;;;;;;5044281;28;20245;-63
2023/06/25 08:07:09;;;;;;;5.80;3.57;;;29.90;54.90;;;;;;5028208;28;20232;-63
2023/06/25 08:09:36;;;;;;;3.60;3.30;;;30.00;55.40;;;;;;5048586;28;20251;-64
2023/06/25 08:12:06;;;;;;;4.73;3.40;;;30.10;55.20;;;;;;5043876;28;20274;-63
2023/06/25 08:14:33;;;;;;;3.10;2.90;;;30.20;53.60;;;;;;5048172;28;20209;-63
2023/06/25 08:17:00;;;;;;;5.00;3.20;;;30.30;55.10;;;;;;5052980;28;20210;-63
2023/06/25 08:19:28;;;;;;;7.50;3.20;;;30.40;55.20;;;;;;5045623;28;20522;-63
2023/06/25 08:21:54;;;;;;;10.27;3.37;;;30.50;54.60;;;;;;5062734;28;20199;-63
2023/06/25 08:24:24;;;;;;;9.87;3.80;;;30.70;55.00;;;;;;5043121;28;20245;-63
2023/06/25 08:26:51;;;;;;;4.97;3.00;;;30.80;53.10;;;;;;5048179;28;20245;-63
2023/06/25 08:29:18;;;;;;;3.33;2.87;;;30.90;53.20;;;;;;5051421;28;20198;-63
2023/06/25 08:31:45;;;;;;;4.90;3.03;;;31.00;53.40;;;;;;5042114;28;20202;-64
2023/06/25 08:34:20;;;;;;;3.20;2.80;;;31.10;53.60;;;;;;5051457;28;20285;-63
2023/06/25 08:36:47;;;;;;;4.63;3.03;;;31.30;53.50;;;;;;5049723;28;20321;-63
2023/06/25 08:39:14;;;;;;;4.27;3.17;;;31.40;51.30;;;;;;5046681;28;20210;-66
2023/06/25 08:41:41;;;;;;;3.97;3.00;;;31.40;52.30;;;;;;5049101;28;20206;-63
2023/06/25 08:44:10;;;;;;;4.77;2.73;;;31.40;51.90;;;;;;5039866;28;20319;-63
2023/06/25 08:46:39;;;;;;;3.33;2.90;;;31.50;52.00;;;;;;5045347;28;20214;-64
2023/06/25 08:49:06;;;;;;;3.03;2.73;;;31.40;49.70;;;;;;5044062;28;20589;-63
2023/06/25 08:51:35;;;;;;;5.67;3.20;;;31.30;49.80;;;;;;5050018;28;20203;-64
2023/06/25 08:54:03;;;;;;;3.13;2.80;;;31.20;48.80;;;;;;5044693;28;20210;-63
2023/06/25 08:56:30;;;;;;;4.57;2.90;;;31.00;50.50;;;;;;5043321;28;20211;-64
2023/06/25 08:58:57;;;;;;;5.57;2.83;;;30.80;49.90;;;;;;5047276;28;20285;-64
2023/06/25 09:01:24;;;;;;;4.87;3.07;;;30.60;49.70;;;;;;5046327;28;20210;-64
2023/06/25 09:03:52;;;;;;;2.87;2.67;;;30.50;50.90;;;;;;5042650;28;20286;-63
2023/06/25 09:06:20;;;;;;;6.27;3.27;;;30.60;52.30;;;;;;5043157;28;20272;-63
2023/06/25 09:08:48;;;;;;;2.60;2.40;;;30.70;52.20;;;;;;5043714;28;20614;-64
2023/06/25 09:11:15;;;;;;;6.00;3.07;;;30.90;51.60;;;;;;5050891;28;20272;-63
2023/06/25 09:13:43;;;;;;;5.77;3.10;;;31.00;51.00;;;;;;5045675;28;20215;-65
2023/06/25 09:16:11;;;;;;;3.63;2.80;;;31.10;51.70;;;;;;5046256;28;20305;-63
2023/06/25 09:18:38;;;;;;;3.73;2.80;;;31.20;52.70;;;;;;5044647;28;20213;-63
2023/06/25 09:21:07;;;;;;;4.23;3.40;;;31.30;51.80;;;;;;5045010;28;20226;-64
2023/06/25 09:23:37;;;;;;;3.73;2.60;;;31.40;50.80;;;;;;5046871;28;20221;-63
2023/06/25 09:26:09;;;;;;;7.37;2.80;;;31.50;49.80;;;;;;5024585;28;20659;-63
2023/06/25 09:28:59;;;;;;;2.87;2.67;;;31.60;52.00;;;;;;5028695;28;20304;-66
2023/06/25 09:31:26;;;;;;;3.20;2.90;;;31.80;52.60;;;;;;5020534;28;20192;-64
2023/06/25 09:33:54;;;;;;;4.67;2.73;;;31.90;48.90;;;;;;5026204;28;20195;-63
2023/06/25 09:36:21;;;;;;;4.20;3.20;;;32.00;49.30;;;;;;5026056;28;20231;-63
2023/06/25 09:39:07;;;;;;;3.90;2.80;;;32.10;45.30;;;;;;5026498;28;20195;-63
2023/06/25 09:41:41;;;;;;;4.17;3.20;;;32.10;45.30;;;;;;5023608;28;20524;-63
2023/06/25 09:44:10;;;;;;;3.27;2.93;;;32.00;44.50;;;;;;5020791;28;20215;-63
2023/06/25 09:46:38;;;;;;;2.90;2.70;;;31.90;46.70;;;;;;5027698;28;20230;-64
2023/06/25 09:49:08;;;;;;;4.93;2.97;;;31.90;44.30;;;;;;5024657;28;20290;-64
2023/06/25 09:51:55;;;;;;;2.70;2.50;;;31.90;44.10;;;;;;5024503;28;20634;-64
2023/06/25 09:54:24;;;;;;;4.23;2.63;;;31.90;43.10;;;;;;5023141;28;20298;-63
2023/06/25 09:56:53;;;;;;;3.50;3.20;;;31.90;43.90;;;;;;5026901;28;20278;-64
2023/06/25 09:59:21;;;;;;;4.03;2.70;;;31.90;44.10;;;;;;5024681;28;20207;-63
2023/06/25 10:01:51;;;;;;;4.30;3.10;;;31.90;43.10;;;;;;5025235;28;20201;-64
2023/06/25 10:04:19;;;;;;;2.90;2.60;;;31.90;45.50;;;;;;5029640;28;20222;-63
2023/06/25 10:06:47;;;;;;;5.87;2.67;;;32.00;45.90;;;;;;5028299;28;20559;-64
2023/06/25 10:09:14;;;;;;;3.40;2.83;;;32.10;45.80;;;;;;5027231;28;20636;-63
2023/06/25 10:11:51;;;;;;;3.20;2.90;;;32.30;45.40;;;;;;5026194;28;20635;-63
2023/06/25 10:14:19;;;;;;;5.27;2.87;;;32.40;43.60;;;;;;5022956;28;20214;-64
2023/06/25 10:16:53;;;;;;;3.37;3.07;;;32.50;43.40;;;;;;5023225;28;20650;-64
2023/06/25 10:19:26;;;;;;;4.27;3.00;;;32.40;42.00;;;;;;5018236;28;20625;-64
2023/06/25 10:22:07;;;;;;;3.87;2.80;;;32.40;41.90;;;;;;5020275;28;20222;-64
2023/06/25 10:24:41;;;;;;;3.90;2.77;;;32.30;43.20;;;;;;5029713;28;20258;-67
2023/06/25 10:27:24;;;;;;;4.83;2.93;;;32.40;42.50;;;;;;5045635;28;20661;-63
2023/06/25 10:29:53;;;;;;;3.73;2.90;;;32.30;41.70;;;;;;5042817;28;20210;-64
2023/06/25 10:32:20;;;;;;;3.23;3.00;;;32.30;43.60;;;;;;5044527;28;20191;-63
2023/06/25 10:35:01;;;;;;;3.17;2.97;;;32.40;43.60;;;;;;5043198;28;20260;-64
2023/06/25 10:37:31;;;;;;;3.30;2.97;;;32.50;42.90;;;;;;5040437;28;20210;-64
2023/06/25 10:40:07;;;;;;;7.20;3.33;;;32.60;43.10;;;;;;5047441;28;20191;-64
2023/06/25 10:42:36;;;;;;;4.23;3.17;;;32.70;42.90;;;;;;5042117;28;20213;-64
2023/06/25 10:45:04;;;;;;;3.33;2.93;;;32.80;41.20;;;;;;5048099;28;20649;-64
2023/06/25 10:47:34;;;;;;;5.40;3.10;;;32.80;41.60;;;;;;5042508;28;20237;-64
2023/06/25 10:50:01;;;;;;;3.53;3.23;;;32.80;42.40;;;;;;5043022;28;20199;-67
2023/06/25 10:52:28;;;;;;;3.87;3.20;;;32.80;43.10;;;;;;5043819;28;20207;-64
2023/06/25 10:54:55;;;;;;;3.40;3.10;;;32.90;43.70;;;;;;5042213;28;20195;-64
2023/06/25 10:57:23;;;;;;;3.27;2.97;;;33.10;43.30;;;;;;5039113;28;20281;-63
2023/06/25 10:59:51;;;;;;;3.63;2.77;;;33.10;42.80;;;;;;5040374;28;20202;-63
2023/06/25 11:02:22;;;;;;;4.77;3.50;;;33.30;44.00;;;;;;5040224;28;20199;-64
2023/06/25 11:04:54;;;;;;;3.53;3.23;;;33.40;44.20;;;;;;5040873;28;20198;-64
2023/06/25 11:07:23;;;;;;;3.13;2.87;;;33.60;42.10;;;;;;5047983;28;20594;-64
2023/06/25 11:10:00;;;;;;;4.30;2.87;;;33.70;41.80;;;;;;5045724;28;20203;-66
2023/06/25 11:12:29;;;;;;;8.60;3.40;;;33.70;40.70;;;;;;5043117;28;20218;-64
2023/06/25 11:14:56;;;;;;;2.50;2.30;;;33.60;41.00;;;;;;5048521;28;20203;-63
2023/06/25 11:17:26;;;;;;;2.73;2.53;;;33.50;41.80;;;;;;5038825;28;20688;-64
2023/06/25 11:19:54;;;;;;;3.20;2.97;;;33.50;39.40;;;;;;5040909;28;20215;-64
2023/06/25 11:22:26;;;;;;;3.70;2.70;;;33.50;40.00;;;;;;5042890;28;20210;-63
2023/06/25 11:24:53;;;;;;;3.90;3.13;;;33.50;39.40;;;;;;5043699;28;20334;-63
2023/06/25 11:27:28;;;;;;;5.60;3.30;;;33.40;39.80;;;;;;5041226;28;20340;-63
2023/06/25 11:29:57;;;;;;;4.07;2.87;;;33.30;40.80;;;;;;5038970;28;20579;-64
2023/06/25 11:32:27;;;;;;;3.97;3.67;;;33.20;41.30;;;;;;5044820;28;20203;-63
2023/06/25 11:34:59;;;;;;;4.27;3.00;;;33.10;41.20;;;;;;5041327;28;20698;-63
2023/06/25 11:37:31;;;;;;;3.27;2.93;;;33.10;41.30;;;;;;5043373;28;20733;-64
2023/06/25 11:39:58;;;;;;;5.63;3.10;;;33.10;42.00;;;;;;5047264;28;20214;-64
2023/06/25 11:42:25;;;;;;;4.93;3.00;;;33.20;40.40;;;;;;5036041;28;20198;-64
2023/06/25 11:45:04;;;;;;;3.23;2.93;;;33.10;40.50;;;;;;5051467;28;20711;-64
2023/06/25 11:47:32;;;;;;;5.10;2.97;;;33.10;41.60;;;;;;5047875;28;20218;-64
2023/06/25 11:50:00;;;;;;;2.70;2.50;;;33.10;41.70;;;;;;5047472;28;20279;-64
2023/06/25 11:52:27;;;;;;;2.80;2.60;;;33.30;41.70;;;;;;5044590;28;20203;-64
2023/06/25 11:54:55;;;;;;;3.63;3.33;;;33.40;39.90;;;;;;5034623;28;20226;-64
2023/06/25 11:57:22;;;;;;;3.33;2.77;;;33.40;41.70;;;;;;5042869;28;20238;-63
2023/06/25 11:59:49;;;;;;;3.27;2.40;;;33.50;41.10;;;;;;5033596;28;20202;-64
2023/06/25 12:02:16;;;;;;;4.07;2.97;;;33.50;41.20;;;;;;5048061;28;20199;-63
2023/06/25 12:04:43;;;;;;;3.30;2.70;;;33.50;41.60;;;;;;5043123;28;20885;-64
2023/06/25 12:07:10;;;;;;;4.83;2.67;;;33.50;41.80;;;;;;5044466;28;20219;-64
2023/06/25 12:09:38;;;;;;;5.10;3.47;;;33.50;40.60;;;;;;5042725;28;20202;-64
2023/06/25 12:12:05;;;;;;;3.43;2.87;;;33.50;40.80;;;;;;5042514;28;20644;-64
2023/06/25 12:14:32;;;;;;;3.17;2.90;;;33.40;41.50;;;;;;5047866;28;20650;-63
2023/06/25 12:16:59;;;;;;;3.47;2.80;;;33.30;42.00;;;;;;5049734;28;20209;-64
2023/06/25 12:19:27;;;;;;;3.53;3.23;;;33.40;42.20;;;;;;5044709;28;20280;-64
2023/06/25 12:21:56;;;;;;;2.90;2.70;;;33.60;42.40;;;;;;5049824;28;20211;-64
2023/06/25 12:24:23;;;;;;;3.37;3.07;;;33.70;40.70;;;;;;5045752;28;20310;-63
2023/06/25 12:26:50;;;;;;;9.20;2.97;;;33.80;41.00;;;;;;5043829;28;20233;-64
2023/06/25 12:29:17;;;;;;;3.70;3.03;;;33.80;41.40;;;;;;5048828;28;20274;-64
2023/06/25 12:31:44;;;;;;;7.57;3.10;;;33.80;41.30;;;;;;5047813;28;20253;-63
2023/06/25 12:34:12;;;;;;;5.60;3.40;;;33.80;40.60;;;;;;5044580;28;20223;-63
2023/06/25 12:36:39;;;;;;;3.67;2.83;;;33.70;40.60;;;;;;5033219;28;20218;-64
2023/06/25 12:39:08;;;;;;;3.30;3.00;;;33.70;40.00;;;;;;5045821;28;20217;-63
2023/06/25 12:41:35;;;;;;;3.40;2.93;;;33.50;39.30;;;;;;5047886;28;20210;-64
2023/06/25 12:44:02;;;;;;;2.80;2.37;;;33.30;40.20;;;;;;5043991;28;20238;-64
2023/06/25 12:46:29;;;;;;;3.00;2.80;;;33.20;41.60;;;;;;5040916;28;20563;-64
2023/06/25 12:48:56;;;;;;;4.77;3.40;;;33.20;41.20;;;;;;5043216;28;20201;-64
2023/06/25 12:51:24;;;;;;;3.33;2.97;;;33.20;41.10;;;;;;5047658;28;20524;-63